Time;durP1;ratioP1;P1;durP2;ratioP2;P2;SDS_P1;SDS_P2;PMS_P1;PMS_P2;Temp;Humidity;BMP_temperature;BMP_pressure;BME280_temperature;BME280_humidity;BME280_pressure;Samples;Min_cycle;Max_cycle;Signal;HPM_P1;HPM_P2
2024/01/23 00:02:12;;;;;;;;;;;;;;;-1.20;62.22;101001.84;4980356;28;19914;-80
2024/01/23 00:04:37;;;;;;;;;;;;;;;-1.26;61.83;101003.88;4997832;28;19921;-80
2024/01/23 00:07:03;;;;;;;;;;;;;;;-1.28;61.67;100996.16;4996014;28;19918;-80
2024/01/23 00:09:28;;;;;;;;;;;;;;;-1.30;61.36;100996.22;4998484;28;19937;-80
2024/01/23 00:11:58;;;;;;;;;;;;;;;-1.25;61.89;101006.38;4983753;28;19921;-80
2024/01/23 00:14:23;;;;;;;;;;;;;;;-1.23;61.49;101009.75;5001654;28;19920;-80
2024/01/23 00:16:48;;;;;;;;;;;;;;;-1.21;61.91;101013.13;5000686;28;20008;-80
2024/01/23 00:19:14;;;;;;;;;;;;;;;-1.24;61.66;101010.66;5003247;28;19918;-80
2024/01/23 00:21:39;;;;;;;;;;;;;;;-1.24;61.33;101000.28;5002897;28;19922;-80
2024/01/23 00:24:05;;;;;;;;;;;;;;;-1.25;61.29;100990.84;5003177;28;20002;-80
2024/01/23 00:26:30;;;;;;;;;;;;;;;-1.26;60.86;100994.34;5003079;28;19914;-80
2024/01/23 00:28:55;;;;;;;;;;;;;;;-1.25;60.87;100993.44;5002951;28;19914;-80
2024/01/23 00:31:21;;;;;;;;;;;;;;;-1.26;60.65;100990.91;4986096;28;19944;-80
2024/01/23 00:33:46;;;;;;;;;;;;;;;-1.26;60.95;100980.53;4985731;28;19913;-80
2024/01/23 00:36:11;;;;;;;;;;;;;;;-1.25;61.39;100980.47;5002564;28;19914;-80
2024/01/23 00:38:37;;;;;;;;;;;;;;;-1.31;60.00;100972.97;5002874;28;19981;-80
2024/01/23 00:41:02;;;;;;;;;;;;;;;-1.35;60.60;100981.78;5003544;28;19914;-80
2024/01/23 00:43:27;;;;;;;;;;;;;;;-1.35;61.36;100989.56;4985709;28;19942;-80
2024/01/23 00:45:53;;;;;;;;;;;;;;;-1.45;60.40;100983.09;5002751;28;19917;-80
2024/01/23 00:48:18;;;;;;;;;;;;;;;-1.47;60.94;100975.41;5003226;28;19992;-80
2024/01/23 00:50:43;;;;;;;;;;;;;;;-1.44;61.01;100975.25;5005271;28;19914;-80
2024/01/23 00:53:08;;;;;;;;;;;;;;;-1.50;60.94;100975.50;4988487;28;19964;-80
2024/01/23 00:55:34;;;;;;;;;;;;;;;-1.54;60.91;100973.09;5005160;28;19921;-80
2024/01/23 00:57:59;;;;;;;;;;;;;;;-1.60;60.77;100969.03;5004229;28;19921;-80
2024/01/23 01:00:24;;;;;;;;;;;;;;;-1.60;62.12;100959.50;5003231;28;19914;-80
2024/01/23 01:02:50;;;;;;;;;;;;;;;-1.62;61.37;100965.66;4984957;28;19925;-80
2024/01/23 01:05:15;;;;;;;;;;;;;;;-1.61;62.14;100951.81;5001296;28;19921;-80
2024/01/23 01:07:40;;;;;;;;;;;;;;;-1.60;61.54;100956.94;5001750;28;19949;-80
2024/01/23 01:10:06;;;;;;;;;;;;;;;-1.55;61.55;100956.72;4999887;28;19914;-80
2024/01/23 01:12:33;;;;;;;;;;;;;;;-1.53;61.06;100948.88;5001254;28;19937;-81
2024/01/23 01:15:00;;;;;;;;;;;;;;;-1.53;60.65;100943.72;4986456;28;19952;-81
2024/01/23 01:17:26;;;;;;;;;;;;;;;-1.50;61.20;100933.22;5005598;28;19914;-80
2024/01/23 01:19:52;;;;;;;;;;;;;;;-1.54;61.78;100924.75;5004542;28;19922;-81
2024/01/23 01:22:17;;;;;;;;;;;;;;;-1.62;61.13;100924.25;5001211;28;19921;-80
2024/01/23 01:24:42;;;;;;;;;;;;;;;-1.72;61.31;100920.38;4982388;28;19921;-80
2024/01/23 01:27:08;;;;;;;;;;;;;;;-1.71;61.29;100915.13;5000516;28;19984;-80
2024/01/23 01:29:33;;;;;;;;;;;;;;;-1.71;61.11;100909.09;5000659;28;20362;-80
2024/01/23 01:31:58;;;;;;;;;;;;;;;-1.76;61.21;100922.25;5001563;28;19937;-80
2024/01/23 01:34:23;;;;;;;;;;;;;;;-1.77;61.76;100919.72;5001035;28;19936;-80
2024/01/23 01:36:49;;;;;;;;;;;;;;;-1.69;61.61;100920.22;5001822;28;19914;-80
2024/01/23 01:39:14;;;;;;;;;;;;;;;-1.71;62.04;100917.72;4984845;28;19922;-80
2024/01/23 01:41:40;;;;;;;;;;;;;;;-1.73;61.27;100916.94;4985598;28;19913;-80
2024/01/23 01:44:05;;;;;;;;;;;;;;;-1.70;61.68;100916.81;5002160;28;19914;-80
2024/01/23 01:46:30;;;;;;;;;;;;;;;-1.68;61.14;100914.16;5001502;28;19914;-80
2024/01/23 01:48:56;;;;;;;;;;;;;;;-1.60;61.95;100910.31;5001824;28;19968;-81
2024/01/23 01:51:25;;;;;;;;;;;;;;;-1.50;61.95;100913.34;5000757;28;19914;-81
2024/01/23 01:53:51;;;;;;;;;;;;;;;-1.50;61.47;100905.56;4984873;28;19981;-80
2024/01/23 01:56:17;;;;;;;;;;;;;;;-1.49;61.19;100904.66;4988994;28;19921;-81
2024/01/23 01:58:44;;;;;;;;;;;;;;;-1.52;61.90;100903.97;5004837;28;19924;-81
2024/01/23 02:01:10;;;;;;;;;;;;;;;-1.54;62.21;100909.19;5001388;28;19949;-80
2024/01/23 02:03:35;;;;;;;;;;;;;;;-1.52;61.96;100904.78;4999977;28;19914;-80
2024/01/23 02:06:02;;;;;;;;;;;;;;;-1.54;61.41;100909.19;5002992;28;19948;-80
2024/01/23 02:08:27;;;;;;;;;;;;;;;-1.54;61.44;100905.78;5003268;28;19914;-81
2024/01/23 02:10:53;;;;;;;;;;;;;;;-1.60;61.40;100899.97;5003310;28;19914;-80
2024/01/23 02:13:18;;;;;;;;;;;;;;;-1.64;61.71;100906.19;5003277;28;20391;-80
2024/01/23 02:15:43;;;;;;;;;;;;;;;-1.64;62.25;100908.78;5003873;28;19910;-80
2024/01/23 02:18:09;;;;;;;;;;;;;;;-1.63;61.45;100904.44;5002754;28;19914;-80
2024/01/23 02:20:34;;;;;;;;;;;;;;;-1.69;62.14;100904.69;5004423;28;19922;-80
2024/01/23 02:22:59;;;;;;;;;;;;;;;-1.66;62.05;100909.75;4987227;28;19914;-81
2024/01/23 02:25:25;;;;;;;;;;;;;;;-1.63;61.65;100915.63;5006305;28;19914;-80
2024/01/23 02:27:50;;;;;;;;;;;;;;;-1.65;61.82;100906.25;5005936;28;19914;-80
2024/01/23 02:30:15;;;;;;;;;;;;;;;-1.70;61.78;100897.84;5006190;28;20317;-81
2024/01/23 02:32:44;;;;;;;;;;;;;;;-1.69;62.24;100904.69;5005613;28;19906;-80
2024/01/23 02:35:09;;;;;;;;;;;;;;;-1.65;61.96;100898.47;4987442;28;19921;-80
2024/01/23 02:37:34;;;;;;;;;;;;;;;-1.68;61.34;100899.44;5003832;28;19918;-80
2024/01/23 02:40:00;;;;;;;;;;;;;;;-1.70;61.42;100890.06;5003624;28;20387;-81
2024/01/23 02:42:25;;;;;;;;;;;;;;;-1.72;61.38;100886.72;5003385;28;20000;-81
2024/01/23 02:44:51;;;;;;;;;;;;;;;-1.70;61.29;100882.31;4986230;28;19920;-80
2024/01/23 02:47:16;;;;;;;;;;;;;;;-1.72;61.99;100879.78;5002565;28;19914;-80
2024/01/23 02:49:43;;;;;;;;;;;;;;;-1.72;61.16;100877.19;5002886;28;20370;-80
2024/01/23 02:52:08;;;;;;;;;;;;;;;-1.70;61.46;100870.19;4999340;28;19942;-80
2024/01/23 02:54:33;;;;;;;;;;;;;;;-1.68;61.03;100875.31;4999300;28;19945;-80
2024/01/23 02:56:59;;;;;;;;;;;;;;;-1.72;61.04;100876.34;4999187;28;20410;-80
2024/01/23 02:59:24;;;;;;;;;;;;;;;-1.74;62.04;100870.41;4999727;28;19918;-80
2024/01/23 03:01:49;;;;;;;;;;;;;;;-1.79;62.04;100864.59;4982044;28;19914;-81
2024/01/23 03:04:15;;;;;;;;;;;;;;;-1.81;61.43;100872.41;4999711;28;19914;-80
2024/01/23 03:06:40;;;;;;;;;;;;;;;-1.84;62.03;100866.53;4999788;28;19913;-80
2024/01/23 03:09:13;;;;;;;;;;;;;;;-1.83;61.79;100871.66;5000319;28;20430;-80
2024/01/23 03:11:39;;;;;;;;;;;;;;;-1.83;60.82;100868.22;5000454;28;19913;-80
2024/01/23 03:14:04;;;;;;;;;;;;;;;-1.89;61.33;100858.13;5001073;28;20299;-80
2024/01/23 03:16:29;;;;;;;;;;;;;;;-1.94;61.46;100860.91;5000482;28;20322;-80
2024/01/23 03:18:55;;;;;;;;;;;;;;;-1.94;61.36;100853.16;4999781;28;19924;-81
2024/01/23 03:21:20;;;;;;;;;;;;;;;-1.99;60.97;100855.94;5000133;28;19922;-80
2024/01/23 03:23:45;;;;;;;;;;;;;;;-2.00;61.86;100849.09;4999985;28;19942;-81
2024/01/23 03:26:10;;;;;;;;;;;;;;;-1.99;61.19;100844.75;4999738;28;19937;-80
2024/01/23 03:28:36;;;;;;;;;;;;;;;-2.00;61.16;100838.72;5001186;28;19914;-80
2024/01/23 03:31:01;;;;;;;;;;;;;;;-2.07;61.34;100847.66;5001315;28;19914;-80
2024/01/23 03:33:26;;;;;;;;;;;;;;;-2.10;61.03;100842.63;4984554;28;19947;-80
2024/01/23 03:35:52;;;;;;;;;;;;;;;-2.10;60.84;100845.22;4998580;28;20315;-80
2024/01/23 03:38:17;;;;;;;;;;;;;;;-2.12;61.69;100844.44;4998638;28;19926;-80
2024/01/23 03:40:43;;;;;;;;;;;;;;;-2.14;61.06;100838.50;5000547;28;19914;-80
2024/01/23 03:43:08;;;;;;;;;;;;;;;-2.17;61.25;100828.28;5000385;28;19914;-80
2024/01/23 03:45:33;;;;;;;;;;;;;;;-2.20;61.54;100820.66;5001511;28;19964;-80
2024/01/23 03:48:01;;;;;;;;;;;;;;;-2.23;61.27;100820.75;5007767;28;19976;-81
2024/01/23 03:50:26;;;;;;;;;;;;;;;-2.28;60.86;100812.34;5006281;28;20409;-80
2024/01/23 03:52:51;;;;;;;;;;;;;;;-2.33;61.05;100811.69;5005041;28;19957;-80
2024/01/23 03:55:17;;;;;;;;;;;;;;;-2.36;61.42;100819.59;5004313;28;19969;-80
2024/01/23 03:57:44;;;;;;;;;;;;;;;-2.36;60.98;100822.19;5006339;28;19913;-80
2024/01/23 04:00:10;;;;;;;;;;;;;;;-2.32;61.24;100819.41;5005672;28;19924;-80
2024/01/23 04:02:37;;;;;;;;;;;;;;;-2.30;61.56;100816.75;5006405;28;19913;-81
2024/01/23 04:05:03;;;;;;;;;;;;;;;-2.41;60.85;100814.59;5005606;28;19920;-80
2024/01/23 04:07:28;;;;;;;;;;;;;;;-2.42;61.20;100812.09;5004387;28;20314;-80
2024/01/23 04:09:54;;;;;;;;;;;;;;;-2.42;62.12;100823.28;5006738;28;20395;-80
2024/01/23 04:12:19;;;;;;;;;;;;;;;-2.43;62.54;100818.16;5007321;28;19914;-80
2024/01/23 04:14:44;;;;;;;;;;;;;;;-2.44;61.92;100817.31;5007271;28;19921;-80
2024/01/23 04:17:10;;;;;;;;;;;;;;;-2.33;61.09;100816.88;5006803;28;20347;-80
2024/01/23 04:19:36;;;;;;;;;;;;;;;-2.36;60.57;100804.91;5002357;28;19930;-80
2024/01/23 04:22:01;;;;;;;;;;;;;;;-2.38;61.18;100817.06;5007043;28;19969;-81
2024/01/23 04:24:26;;;;;;;;;;;;;;;-2.43;60.87;100811.25;5009628;28;20387;-81
2024/01/23 04:26:52;;;;;;;;;;;;;;;-2.46;60.75;100810.53;5009017;28;19957;-81
2024/01/23 04:29:17;;;;;;;;;;;;;;;-2.43;61.16;100807.81;5008774;28;19992;-80
2024/01/23 04:31:42;;;;;;;;;;;;;;;-2.44;60.82;100801.81;5008997;28;19914;-81
2024/01/23 04:34:07;;;;;;;;;;;;;;;-2.35;61.04;100800.56;4991237;28;20461;-80
2024/01/23 04:36:33;;;;;;;;;;;;;;;-2.29;61.22;100793.41;5008955;28;19953;-80
2024/01/23 04:38:58;;;;;;;;;;;;;;;-2.27;61.20;100795.91;5009620;28;20000;-80
2024/01/23 04:41:24;;;;;;;;;;;;;;;-2.30;61.14;100801.22;5009113;28;19914;-81
2024/01/23 04:43:50;;;;;;;;;;;;;;;-2.36;61.38;100796.31;5006696;28;19921;-80
2024/01/23 04:46:15;;;;;;;;;;;;;;;-2.33;60.79;100798.75;5006178;28;19910;-80
2024/01/23 04:48:41;;;;;;;;;;;;;;;-2.31;61.62;100794.38;5006056;28;19913;-80
2024/01/23 04:51:06;;;;;;;;;;;;;;;-2.34;61.35;100787.59;5003215;28;19918;-80
2024/01/23 04:53:32;;;;;;;;;;;;;;;-2.41;61.31;100793.91;5003906;28;19914;-80
2024/01/23 04:55:58;;;;;;;;;;;;;;;-2.41;61.20;100790.50;4986130;28;20395;-80
2024/01/23 04:58:23;;;;;;;;;;;;;;;-2.42;61.03;100791.41;5001006;28;19918;-80
2024/01/23 05:00:49;;;;;;;;;;;;;;;-2.43;61.04;100794.91;5000512;28;19920;-80
2024/01/23 05:03:14;;;;;;;;;;;;;;;-2.43;60.67;100800.06;5000568;28;20422;-80
2024/01/23 05:05:39;;;;;;;;;;;;;;;-2.51;61.13;100791.78;5000870;28;19906;-80
2024/01/23 05:08:05;;;;;;;;;;;;;;;-2.60;61.28;100783.50;5000798;28;19946;-80
2024/01/23 05:10:31;;;;;;;;;;;;;;;-2.63;61.04;100783.66;4982681;28;19921;-80
2024/01/23 05:12:56;;;;;;;;;;;;;;;-2.68;61.00;100785.59;5000950;28;20367;-80
2024/01/23 05:15:22;;;;;;;;;;;;;;;-2.72;61.79;100783.19;4983012;28;19953;-80
2024/01/23 05:17:47;;;;;;;;;;;;;;;-2.71;61.50;100785.72;5000430;28;19917;-80
2024/01/23 05:20:13;;;;;;;;;;;;;;;-2.62;61.17;100781.91;4999852;28;19921;-80
2024/01/23 05:22:38;;;;;;;;;;;;;;;-2.60;60.71;100787.84;4998533;28;19997;-80
2024/01/23 05:25:04;;;;;;;;;;;;;;;-2.64;61.31;100784.56;5000746;28;19981;-80
2024/01/23 05:27:29;;;;;;;;;;;;;;;-2.67;60.82;100783.84;5000921;28;19989;-80
2024/01/23 05:29:54;;;;;;;;;;;;;;;-2.65;61.53;100779.44;5000723;28;19921;-80
2024/01/23 05:32:20;;;;;;;;;;;;;;;-2.60;60.73;100780.09;5001116;28;19914;-80
2024/01/23 05:34:45;;;;;;;;;;;;;;;-2.66;61.19;100775.19;5001816;28;19914;-80
2024/01/23 05:37:10;;;;;;;;;;;;;;;-2.78;60.91;100779.13;5003224;28;19914;-80
2024/01/23 05:39:39;;;;;;;;;;;;;;;-2.92;60.81;100771.94;5001031;28;19918;-80
2024/01/23 05:42:06;;;;;;;;;;;;;;;-3.03;61.19;100768.91;5001701;28;20455;-80
2024/01/23 05:44:31;;;;;;;;;;;;;;;-3.00;61.39;100767.94;5002448;28;19914;-80
2024/01/23 05:46:56;;;;;;;;;;;;;;;-2.95;61.80;100766.03;5002073;28;20396;-80
2024/01/23 05:49:22;;;;;;;;;;;;;;;-2.87;61.61;100758.81;4984475;28;20001;-80
2024/01/23 05:51:47;;;;;;;;;;;;;;;-2.77;61.11;100759.28;4982279;28;20004;-80
2024/01/23 05:54:12;;;;;;;;;;;;;;;-2.74;61.74;100753.97;4999398;28;19920;-80
2024/01/23 05:56:38;;;;;;;;;;;;;;;-2.74;61.59;100757.41;4998027;28;20417;-80
2024/01/23 05:59:03;;;;;;;;;;;;;;;-2.62;61.99;100750.88;4998788;28;19922;-80
2024/01/23 06:01:31;;;;;;;;;;;;;;;-2.57;61.14;100747.19;4998959;28;19956;-80
2024/01/23 06:03:56;;;;;;;;;;;;;;;-2.49;61.30;100754.63;4981373;28;20307;-80
2024/01/23 06:06:22;;;;;;;;;;;;;;;-2.43;60.87;100758.69;4982407;28;19918;-80
2024/01/23 06:08:47;;;;;;;;;;;;;;;-2.41;61.09;100755.13;5001214;28;19914;-80
2024/01/23 06:11:13;;;;;;;;;;;;;;;-2.47;59.99;100741.63;5001746;28;19913;-80
2024/01/23 06:13:38;;;;;;;;;;;;;;;-2.56;60.20;100746.28;4995437;28;19922;-79
2024/01/23 06:16:04;;;;;;;;;;;;;;;-2.65;60.32;100743.25;4979387;28;19947;-79
2024/01/23 06:18:30;;;;;;;;;;;;;;;-2.80;60.77;100749.06;4980365;28;19918;-80
2024/01/23 06:20:57;;;;;;;;;;;;;;;-2.81;60.44;100750.81;4980132;28;19922;-79
2024/01/23 06:23:23;;;;;;;;;;;;;;;-2.78;60.64;100750.69;4977939;28;19925;-80
2024/01/23 06:25:48;;;;;;;;;;;;;;;-2.69;61.27;100736.53;4977545;28;19918;-80
2024/01/23 06:28:13;;;;;;;;;;;;;;;-2.61;60.39;100747.38;4976324;28;20422;-79
2024/01/23 06:30:38;;;;;;;;;;;;;;;-2.55;60.49;100741.97;4976736;28;20379;-79
2024/01/23 06:33:05;;;;;;;;;;;;;;;-2.53;61.09;100740.16;4989666;28;19917;-79
2024/01/23 06:35:31;;;;;;;;;;;;;;;-2.49;60.69;100749.44;4997168;28;19921;-79
2024/01/23 06:37:56;;;;;;;;;;;;;;;-2.46;60.66;100741.56;4981901;28;20312;-79
2024/01/23 06:40:21;;;;;;;;;;;;;;;-2.38;61.11;100741.22;4975949;28;19918;-80
2024/01/23 06:42:47;;;;;;;;;;;;;;;-2.36;60.51;100737.66;4977601;28;19914;-79
2024/01/23 06:45:13;;;;;;;;;;;;;;;-2.30;59.95;100739.97;4977387;28;20255;-80
2024/01/23 06:47:39;;;;;;;;;;;;;;;-2.25;60.98;100743.22;4977498;28;20323;-80
2024/01/23 06:50:04;;;;;;;;;;;;;;;-2.22;60.40;100739.69;4977912;28;19915;-80
2024/01/23 06:52:30;;;;;;;;;;;;;;;-2.19;60.86;100733.53;4988403;28;19941;-80
2024/01/23 06:54:55;;;;;;;;;;;;;;;-2.15;59.65;100737.66;4996917;28;19914;-80
2024/01/23 06:57:20;;;;;;;;;;;;;;;-2.07;60.22;100740.75;4980686;28;19976;-79
2024/01/23 06:59:46;;;;;;;;;;;;;;;-2.04;60.05;100730.25;5001996;28;19918;-80
2024/01/23 07:02:11;;;;;;;;;;;;;;;-2.02;60.20;100731.88;4983281;28;19953;-79
2024/01/23 07:04:36;;;;;;;;;;;;;;;-2.02;60.55;100728.44;4982529;28;19937;-80
2024/01/23 07:07:02;;;;;;;;;;;;;;;-1.99;60.05;100729.13;4988315;28;19918;-79
2024/01/23 07:09:28;;;;;;;;;;;;;;;-1.98;60.50;100722.22;4993108;28;19910;-80
2024/01/23 07:11:55;;;;;;;;;;;;;;;-1.95;59.81;100717.72;4998006;28;19910;-80
2024/01/23 07:14:21;;;;;;;;;;;;;;;-1.91;60.54;100708.09;4996491;28;19920;-80
2024/01/23 07:16:46;;;;;;;;;;;;;;;-1.85;60.48;100710.38;4995868;28;19914;-80
2024/01/23 07:19:11;;;;;;;;;;;;;;;-1.83;60.52;100708.56;4973524;28;19930;-80
2024/01/23 07:21:37;;;;;;;;;;;;;;;-1.82;59.90;100709.41;4977048;28;20382;-80
2024/01/23 07:24:04;;;;;;;;;;;;;;;-1.80;60.05;100708.44;4961007;28;20276;-79
2024/01/23 07:26:29;;;;;;;;;;;;;;;-1.75;60.09;100701.28;4987470;28;20428;-80
2024/01/23 07:28:55;;;;;;;;;;;;;;;-1.71;59.84;100696.81;4994523;28;19960;-80
2024/01/23 07:31:20;;;;;;;;;;;;;;;-1.64;60.00;100693.00;4998598;28;19914;-80
2024/01/23 07:33:46;;;;;;;;;;;;;;;-1.63;60.05;100679.16;4983292;28;19964;-79
2024/01/23 07:36:11;;;;;;;;;;;;;;;-1.57;60.44;100690.97;4993963;28;20013;-80
2024/01/23 07:38:36;;;;;;;;;;;;;;;-1.49;60.19;100691.44;4961215;28;19922;-80
2024/01/23 07:41:01;;;;;;;;;;;;;;;-1.43;60.44;100697.19;4977619;28;19973;-79
2024/01/23 07:43:27;;;;;;;;;;;;;;;-1.33;60.67;100698.44;4976554;28;20358;-80
2024/01/23 07:45:53;;;;;;;;;;;;;;;-1.23;60.58;100701.41;4985056;28;19964;-80
2024/01/23 07:48:18;;;;;;;;;;;;;;;-1.11;60.26;100695.63;4997924;28;19921;-80
2024/01/23 07:50:44;;;;;;;;;;;;;;;-1.06;60.06;100698.00;4999046;28;19914;-80
2024/01/23 07:53:09;;;;;;;;;;;;;;;-1.04;59.51;100684.03;4993872;28;19941;-81
2024/01/23 07:55:34;;;;;;;;;;;;;;;-0.92;60.08;100692.94;5000244;28;19914;-80
2024/01/23 07:58:00;;;;;;;;;;;;;;;-0.83;59.70;100689.91;5000192;28;19920;-80
2024/01/23 08:00:25;;;;;;;;;;;;;;;-0.76;59.59;100693.00;5000241;28;20318;-80
2024/01/23 08:02:50;;;;;;;;;;;;;;;-0.67;59.42;100687.41;4990240;28;19981;-80
2024/01/23 08:05:15;;;;;;;;;;;;;;;-0.58;59.56;100684.31;4982683;28;19914;-80
2024/01/23 08:07:41;;;;;;;;;;;;;;;-0.55;59.52;100684.16;4982151;28;19993;-80
2024/01/23 08:10:09;;;;;;;;;;;;;;;-0.46;59.16;100682.84;4995611;28;20021;-80
2024/01/23 08:12:34;;;;;;;;;;;;;;;-0.39;59.06;100691.97;5004097;28;19944;-79
2024/01/23 08:14:59;;;;;;;;;;;;;;;-0.38;59.53;100685.88;5000097;28;19917;-80
2024/01/23 08:17:26;;;;;;;;;;;;;;;-0.39;59.03;100686.78;4999189;28;19973;-80
2024/01/23 08:19:51;;;;;;;;;;;;;;;-0.31;59.37;100676.84;4997994;28;19925;-80
2024/01/23 08:22:16;;;;;;;;;;;;;;;-0.24;58.87;100674.75;4998382;28;19918;-80
2024/01/23 08:24:42;;;;;;;;;;;;;;;-0.21;58.78;100669.41;5000030;28;19936;-80
2024/01/23 08:27:07;;;;;;;;;;;;;;;-0.13;58.89;100673.28;4998608;28;19993;-80
2024/01/23 08:29:33;;;;;;;;;;;;;;;-0.07;58.86;100666.91;4997776;28;20048;-80
2024/01/23 08:31:59;;;;;;;;;;;;;;;0.02;58.96;100669.03;4984435;28;20400;-80
2024/01/23 08:34:24;;;;;;;;;;;;;;;0.07;58.50;100676.56;4994408;28;19918;-80
2024/01/23 08:36:49;;;;;;;;;;;;;;;0.14;58.87;100672.72;4992083;28;19918;-80
2024/01/23 08:39:15;;;;;;;;;;;;;;;0.24;58.79;100673.88;4987113;28;19933;-80
2024/01/23 08:41:40;;;;;;;;;;;;;;;0.37;58.57;100664.50;4997339;28;19968;-80
2024/01/23 08:44:05;;;;;;;;;;;;;;;0.45;58.53;100661.47;4985641;28;19913;-80
2024/01/23 08:46:31;;;;;;;;;;;;;;;0.48;58.15;100675.13;5001631;28;19921;-81
2024/01/23 08:48:56;;;;;;;;;;;;;;;0.55;58.32;100665.22;4997104;28;19922;-79
2024/01/23 08:51:24;;;;;;;;;;;;;;;0.61;58.36;100667.47;4984258;28;19957;-80
2024/01/23 08:53:49;;;;;;;;;;;;;;;0.71;58.74;100670.38;4979805;28;20422;-79
2024/01/23 08:56:17;;;;;;;;;;;;;;;0.82;58.37;100655.03;4993709;28;19914;-79
2024/01/23 08:58:43;;;;;;;;;;;;;;;0.85;58.11;100653.09;4994268;28;19957;-79
2024/01/23 09:01:08;;;;;;;;;;;;;;;0.89;57.87;100643.34;4996848;28;19922;-79
2024/01/23 09:03:34;;;;;;;;;;;;;;;0.88;58.14;100634.72;4995550;28;19918;-79
2024/01/23 09:05:59;;;;;;;;;;;;;;;0.90;57.23;100632.03;4996516;28;20971;-80
2024/01/23 09:08:24;;;;;;;;;;;;;;;0.94;57.65;100630.91;5001395;28;19993;-79
2024/01/23 09:10:49;;;;;;;;;;;;;;;1.02;57.94;100633.91;4999227;28;19985;-80
2024/01/23 09:13:15;;;;;;;;;;;;;;;1.09;57.85;100624.81;5000755;28;20318;-80
2024/01/23 09:15:40;;;;;;;;;;;;;;;1.17;57.79;100622.59;4999574;28;19914;-78
2024/01/23 09:18:06;;;;;;;;;;;;;;;1.26;57.83;100626.41;4999400;28;19913;-79
2024/01/23 09:20:31;;;;;;;;;;;;;;;1.28;57.31;100614.97;4980833;28;19937;-81
2024/01/23 09:22:56;;;;;;;;;;;;;;;1.34;57.01;100625.94;4999019;28;19918;-79
2024/01/23 09:25:22;;;;;;;;;;;;;;;1.39;57.78;100608.28;5001694;28;19945;-80
2024/01/23 09:27:49;;;;;;;;;;;;;;;1.44;57.79;100606.22;4984045;28;19977;-79
2024/01/23 09:30:14;;;;;;;;;;;;;;;1.52;57.67;100601.44;4999300;28;19914;-79
2024/01/23 09:32:40;;;;;;;;;;;;;;;1.55;56.64;100590.81;4989686;28;21459;-79
2024/01/23 09:35:06;;;;;;;;;;;;;;;1.63;56.77;100599.00;4980669;28;19916;-79
2024/01/23 09:37:32;;;;;;;;;;;;;;;1.73;56.71;100594.06;4983614;28;19918;-79
2024/01/23 09:39:57;;;;;;;;;;;;;;;1.77;56.31;100580.75;4996514;28;20005;-79
2024/01/23 09:42:25;;;;;;;;;;;;;;;1.82;56.39;100580.44;4986896;28;19953;-79
2024/01/23 09:44:55;;;;;;;;;;;;;;;1.94;56.59;100581.44;4961636;28;19918;-80
2024/01/23 09:47:20;;;;;;;;;;;;;;;2.02;56.79;100579.19;4979058;28;20386;-79
2024/01/23 09:49:46;;;;;;;;;;;;;;;2.07;55.78;100580.56;4970865;28;19918;-79
2024/01/23 09:52:12;;;;;;;;;;;;;;;2.05;54.94;100571.16;4979912;28;19921;-79
2024/01/23 09:54:37;;;;;;;;;;;;;;;2.14;55.15;100575.78;4992955;28;19948;-81
2024/01/23 09:57:03;;;;;;;;;;;;;;;2.21;55.46;100567.47;4999859;28;19930;-80
2024/01/23 09:59:28;;;;;;;;;;;;;;;2.28;55.63;100567.09;4991172;28;19926;-80
2024/01/23 10:01:55;;;;;;;;;;;;;;;2.34;55.07;100559.72;4997612;28;19949;-80
2024/01/23 10:04:21;;;;;;;;;;;;;;;2.38;55.05;100561.19;4993550;28;20391;-79
2024/01/23 10:06:47;;;;;;;;;;;;;;;2.45;55.52;100564.22;4997807;28;19924;-80
2024/01/23 10:09:12;;;;;;;;;;;;;;;2.48;54.76;100567.47;4995197;28;19957;-79
2024/01/23 10:11:38;;;;;;;;;;;;;;;2.54;55.24;100567.06;4978690;28;19921;-79
2024/01/23 10:14:05;;;;;;;;;;;;;;;2.59;55.76;100558.94;4997358;28;19929;-79
2024/01/23 10:16:30;;;;;;;;;;;;;;;2.66;54.96;100551.53;4998617;28;19988;-79
2024/01/23 10:18:56;;;;;;;;;;;;;;;2.72;55.54;100548.50;4996032;28;19972;-79
2024/01/23 10:21:22;;;;;;;;;;;;;;;2.77;55.85;100546.44;4990705;28;19925;-79
2024/01/23 10:23:48;;;;;;;;;;;;;;;2.87;55.73;100542.25;4993530;28;20426;-79
2024/01/23 10:26:14;;;;;;;;;;;;;;;2.93;55.20;100539.22;4989600;28;19922;-79
2024/01/23 10:28:41;;;;;;;;;;;;;;;2.96;55.38;100528.59;4995147;28;19941;-79
2024/01/23 10:31:07;;;;;;;;;;;;;;;3.05;55.10;100535.81;4996715;28;19928;-78
2024/01/23 10:33:33;;;;;;;;;;;;;;;3.06;54.78;100527.03;4994478;28;19953;-78
2024/01/23 10:35:58;;;;;;;;;;;;;;;3.12;54.30;100518.78;4985057;28;19929;-79
2024/01/23 10:38:25;;;;;;;;;;;;;;;3.16;53.90;100527.25;4994550;28;20448;-79
2024/01/23 10:40:51;;;;;;;;;;;;;;;3.18;53.55;100520.97;4992282;28;19937;-79
2024/01/23 10:43:17;;;;;;;;;;;;;;;3.25;54.73;100518.78;4990257;28;20399;-79
2024/01/23 10:45:43;;;;;;;;;;;;;;;3.34;54.40;100519.91;4984172;28;19918;-78
2024/01/23 10:48:08;;;;;;;;;;;;;;;3.37;54.84;100523.13;4994129;28;20315;-79
2024/01/23 10:50:34;;;;;;;;;;;;;;;3.22;53.76;100520.75;4990190;28;19925;-78
2024/01/23 10:53:05;;;;;;;;;;;;;;;3.18;52.41;100523.59;5006715;28;20060;-78
2024/01/23 10:55:36;;;;;;;;;;;;;;;3.24;53.37;100513.66;4997274;28;19924;-79
2024/01/23 10:58:03;;;;;;;;;;;;;;;3.25;53.69;100510.09;5013944;28;20011;-79
2024/01/23 11:00:28;;;;;;;;;;;;;;;3.28;54.23;100500.28;4992490;28;20319;-79
2024/01/23 11:03:04;;;;;;;;;;;;;;;3.33;53.33;100502.56;4978850;28;19917;-79
2024/01/23 11:06:02;;;;;;;;;;;;;;;3.26;53.05;100502.16;4992377;28;19918;-79
2024/01/23 11:08:33;;;;;;;;;;;;;;;3.26;52.98;100491.72;4940578;28;19996;-78
2024/01/23 11:11:10;;;;;;;;;;;;;;;3.24;52.96;100498.84;4999595;28;19919;-78
2024/01/23 11:13:42;;;;;;;;;;;;;;;3.23;52.73;100499.78;4998798;28;19917;-78
2024/01/23 11:16:09;;;;;;;;;;;;;;;3.17;52.43;100495.00;4998287;28;19922;-78
2024/01/23 11:18:34;;;;;;;;;;;;;;;3.09;53.02;100487.69;4993992;28;20383;-79
2024/01/23 11:21:09;;;;;;;;;;;;;;;3.10;53.14;100480.69;4991872;28;19976;-78
2024/01/23 11:23:38;;;;;;;;;;;;;;;3.14;52.71;100476.94;4985099;28;19973;-78
2024/01/23 11:26:14;;;;;;;;;;;;;;;3.11;52.73;100488.44;4991851;28;19957;-79
2024/01/23 11:28:41;;;;;;;;;;;;;;;3.16;53.84;100486.31;4975783;28;19914;-80
2024/01/23 11:31:07;;;;;;;;;;;;;;;3.19;53.58;100482.66;4990874;28;19921;-78
2024/01/23 11:33:35;;;;;;;;;;;;;;;3.10;53.77;100486.75;4991173;28;19925;-78
2024/01/23 11:36:08;;;;;;;;;;;;;;;3.12;54.25;100486.66;4975660;28;20302;-79
2024/01/23 11:38:47;;;;;;;;;;;;;;;3.13;54.25;100475.28;4989679;28;19923;-78
2024/01/23 11:41:23;;;;;;;;;;;;;;;3.13;53.98;100470.88;4993240;28;20008;-78
2024/01/23 11:44:01;;;;;;;;;;;;;;;3.08;53.46;100478.22;4976095;28;20001;-78
2024/01/23 11:46:27;;;;;;;;;;;;;;;3.06;54.45;100474.03;4969051;28;20001;-78
2024/01/23 11:48:53;;;;;;;;;;;;;;;3.02;53.53;100481.25;4988440;28;19965;-78
2024/01/23 11:51:18;;;;;;;;;;;;;;;3.01;53.53;100471.75;4969233;28;19918;-78
2024/01/23 11:53:44;;;;;;;;;;;;;;;2.97;52.88;100472.03;4991371;28;20414;-78
2024/01/23 11:56:10;;;;;;;;;;;;;;;2.89;52.94;100467.34;4990555;28;19950;-78
2024/01/23 11:58:35;;;;;;;;;;;;;;;2.89;53.29;100459.53;4971167;28;19929;-78
2024/01/23 12:01:01;;;;;;;;;;;;;;;2.91;53.95;100460.25;4993012;28;19913;-78
2024/01/23 12:03:27;;;;;;;;;;;;;;;2.93;53.96;100462.75;4977477;28;20378;-78
2024/01/23 12:05:52;;;;;;;;;;;;;;;2.86;53.07;100455.34;4977644;28;19925;-77
2024/01/23 12:08:18;;;;;;;;;;;;;;;2.90;53.22;100448.16;4977871;28;19922;-78
2024/01/23 12:10:43;;;;;;;;;;;;;;;2.94;53.75;100446.16;4977951;28;19914;-78
2024/01/23 12:13:09;;;;;;;;;;;;;;;2.95;52.98;100440.00;4983438;28;20371;-78
2024/01/23 12:15:35;;;;;;;;;;;;;;;2.99;53.28;100433.66;4998448;28;19913;-78
2024/01/23 12:18:00;;;;;;;;;;;;;;;3.03;53.63;100435.13;4997488;28;19918;-78
2024/01/23 12:20:26;;;;;;;;;;;;;;;3.07;54.00;100429.56;4997225;28;19921;-78
2024/01/23 12:22:51;;;;;;;;;;;;;;;3.08;53.02;100426.03;4998236;28;19972;-78
2024/01/23 12:25:17;;;;;;;;;;;;;;;3.06;52.62;100424.47;4994218;28;20490;-78
2024/01/23 12:27:42;;;;;;;;;;;;;;;3.11;54.22;100420.59;4996872;28;19968;-78
2024/01/23 12:30:15;;;;;;;;;;;;;;;3.13;53.58;100420.47;4997314;28;19917;-78
2024/01/23 12:32:41;;;;;;;;;;;;;;;3.11;53.24;100412.75;4995587;28;19918;-78
2024/01/23 12:35:12;;;;;;;;;;;;;;;3.15;53.86;100421.19;4996184;28;19914;-78